createdAt,value
2018-09-19T00:01:02.543Z,100674.41
2018-09-19T00:03:31.959Z,100675.80
2018-09-19T00:06:01.391Z,100674.13
2018-09-19T00:08:30.811Z,100680.91
2018-09-19T00:11:00.200Z,100686.75
2018-09-19T00:13:29.615Z,100679.36
2018-09-19T00:15:58.993Z,100688.30
2018-09-19T00:18:28.389Z,100687.53
2018-09-19T00:20:57.796Z,100684.11
2018-09-19T00:23:27.173Z,100686.45
2018-09-19T00:25:56.547Z,100691.42
2018-09-19T00:28:25.973Z,100701.23
2018-09-19T00:30:55.346Z,100703.60
2018-09-19T00:33:24.737Z,100699.75
2018-09-19T00:35:54.123Z,100695.52
2018-09-19T00:38:23.666Z,100703.11
2018-09-19T00:40:53.059Z,100706.25
2018-09-19T00:43:22.439Z,100713.41
2018-09-19T00:45:51.945Z,100717.00
2018-09-19T00:48:21.386Z,100721.45
2018-09-19T00:50:50.788Z,100726.78
2018-09-19T00:53:20.201Z,100727.27
2018-09-19T00:55:49.960Z,100722.39
2018-09-19T00:58:19.604Z,100727.20
2018-09-19T01:00:49.072Z,100730.27
2018-09-19T01:03:18.472Z,100734.63
2018-09-19T01:05:47.888Z,100735.51
2018-09-19T01:08:17.276Z,100741.59
2018-09-19T01:10:46.651Z,100746.29
2018-09-19T01:13:16.228Z,100743.06
2018-09-19T01:15:45.633Z,100746.88
2018-09-19T01:18:15.036Z,100746.31
2018-09-19T01:20:44.443Z,100758.49
2018-09-19T01:23:13.843Z,100763.19
2018-09-19T01:25:43.223Z,100761.27
2018-09-19T01:28:12.736Z,100769.95
2018-09-19T01:30:42.121Z,100770.26
2018-09-19T01:33:11.485Z,100783.04
2018-09-19T01:35:40.912Z,100785.27
2018-09-19T01:38:10.288Z,100797.59
2018-09-19T01:40:39.703Z,100795.28
2018-09-19T01:43:09.128Z,100805.81
2018-09-19T01:45:38.519Z,100820.79
2018-09-19T01:48:07.879Z,100819.02
2018-09-19T01:50:37.363Z,100825.63
2018-09-19T01:53:06.742Z,100826.09
2018-09-19T01:55:36.275Z,100830.17
2018-09-19T01:58:05.853Z,100835.22
2018-09-19T02:00:35.448Z,100841.08
2018-09-19T02:03:05.158Z,100850.09
2018-09-19T02:05:34.765Z,100861.65
2018-09-19T02:08:04.313Z,100866.56
2018-09-19T02:10:33.937Z,100866.66
2018-09-19T02:13:03.986Z,100871.09
2018-09-19T02:15:33.594Z,100875.14
2018-09-19T02:18:03.167Z,100873.02
2018-09-19T02:20:32.788Z,100873.17
2018-09-19T02:23:02.741Z,100875.47
2018-09-19T02:25:32.316Z,100875.11
2018-09-19T02:28:02.227Z,100880.92
2018-09-19T02:30:31.778Z,100887.25
2018-09-19T02:33:01.337Z,100890.41
2018-09-19T02:35:31.075Z,100892.22
2018-09-19T02:38:00.608Z,100886.55
2018-09-19T02:40:30.184Z,100899.87
2018-09-19T02:42:59.811Z,100893.30
2018-09-19T02:45:29.366Z,100895.52
2018-09-19T02:47:58.921Z,100896.01
2018-09-19T02:50:28.714Z,100899.59
2018-09-19T02:52:58.276Z,100900.52
2018-09-19T02:55:27.950Z,100894.42
2018-09-19T02:57:57.649Z,100905.88
2018-09-19T03:00:27.211Z,100904.19
2018-09-19T03:02:56.825Z,100903.39
2018-09-19T03:05:26.419Z,100907.39
2018-09-19T03:07:55.965Z,100902.16
2018-09-19T03:10:25.621Z,100909.25
2018-09-19T03:12:55.230Z,100908.44
2018-09-19T03:15:25.124Z,100908.06
2018-09-19T03:17:54.712Z,100912.06
2018-09-19T03:20:24.491Z,100913.88
2018-09-19T03:22:54.063Z,100920.97
2018-09-19T03:25:23.628Z,100927.16
2018-09-19T03:27:53.282Z,100933.78
2018-09-19T03:30:22.824Z,100934.72
2018-09-19T03:32:52.428Z,100937.88
2018-09-19T03:35:22.118Z,100938.77
2018-09-19T03:37:51.623Z,100943.20
2018-09-19T03:40:21.205Z,100935.75
2018-09-19T03:42:50.874Z,100940.60
2018-09-19T03:45:20.433Z,100941.98
2018-09-19T03:47:50.110Z,100942.91
2018-09-19T03:50:19.721Z,100937.66
2018-09-19T03:52:49.284Z,100943.41
2018-09-19T03:55:18.894Z,100943.03
2018-09-19T03:57:48.773Z,100950.09
2018-09-19T04:00:18.347Z,100957.17
2018-09-19T04:02:47.926Z,100955.90
2018-09-19T04:05:17.574Z,100955.55
2018-09-19T04:07:47.135Z,100959.98
2018-09-19T04:10:16.783Z,100960.45
2018-09-19T04:12:46.443Z,100968.41
2018-09-19T04:15:16.040Z,100968.36
2018-09-19T04:17:45.638Z,100962.69
2018-09-19T04:20:15.242Z,100965.77
2018-09-19T04:22:44.810Z,100966.22
2018-09-19T04:25:14.366Z,100972.83
2018-09-19T04:27:44.034Z,100969.76
2018-09-19T04:30:13.597Z,100972.86
2018-09-19T04:32:43.248Z,100983.43
2018-09-19T04:35:12.894Z,100973.39
2018-09-19T04:37:42.454Z,100982.20
2018-09-19T04:40:12.043Z,100980.89
2018-09-19T04:42:41.628Z,100985.73
2018-09-19T04:45:11.363Z,100985.73
2018-09-19T04:47:41.021Z,100987.91
2018-09-19T04:50:10.802Z,100992.30
2018-09-19T04:52:40.403Z,100982.55
2018-09-19T04:55:09.992Z,100984.27
2018-09-19T04:57:39.668Z,100989.88
2018-09-19T05:00:09.277Z,100992.91
2018-09-19T05:02:38.836Z,100999.41
2018-09-19T05:05:08.499Z,100997.60
2018-09-19T05:07:38.158Z,101001.04
2018-09-19T05:10:07.780Z,101011.53
2018-09-19T05:12:37.365Z,101012.75
2018-09-19T05:15:07.079Z,101004.35
2018-09-19T05:17:36.721Z,101013.08
2018-09-19T05:20:06.398Z,101013.67
2018-09-19T05:22:35.950Z,101017.45
2018-09-19T05:25:05.597Z,101020.18
2018-09-19T05:27:35.163Z,101020.91
2018-09-19T05:30:05.469Z,101017.96
2018-09-19T05:32:35.063Z,101023.73
2018-09-19T05:35:04.936Z,101021.66
2018-09-19T05:37:34.519Z,101029.41
2018-09-19T05:40:04.163Z,101026.58
2018-09-19T05:42:33.774Z,101032.03
2018-09-19T05:45:03.422Z,101030.61
2018-09-19T05:47:32.992Z,101026.69
2018-09-19T05:50:02.659Z,101033.58
2018-09-19T05:52:32.265Z,101032.59
2018-09-19T05:55:01.871Z,101033.67
2018-09-19T05:57:31.499Z,101038.72
2018-09-19T06:00:01.094Z,101040.47
2018-09-19T06:02:30.811Z,101035.69
2018-09-19T06:05:00.473Z,101042.57
2018-09-19T06:07:30.079Z,101045.48
2018-09-19T06:09:59.689Z,101039.72
2018-09-19T06:12:29.298Z,101039.09
2018-09-19T06:14:58.879Z,101047.85
2018-09-19T06:17:28.534Z,101044.88
2018-09-19T06:19:58.153Z,101047.63
2018-09-19T06:22:27.856Z,101051.03
2018-09-19T06:24:57.437Z,101057.73
2018-09-19T06:27:27.031Z,101051.80
2018-09-19T06:29:56.625Z,101061.92
2018-09-19T06:32:26.196Z,101064.52
2018-09-19T06:34:55.868Z,101067.86
2018-09-19T06:37:25.473Z,101071.14
2018-09-19T06:39:55.190Z,101072.56
2018-09-19T06:42:24.792Z,101080.91
2018-09-19T06:44:54.419Z,101081.34
2018-09-19T06:47:24.011Z,101080.73
2018-09-19T06:49:53.630Z,101084.52
2018-09-19T06:52:23.401Z,101079.73
2018-09-19T06:54:53.082Z,101091.40
2018-09-19T06:57:23.184Z,101086.45
2018-09-19T06:59:52.855Z,101100.88
2018-09-19T07:02:22.406Z,101101.55
2018-09-19T07:04:52.219Z,101100.95
2018-09-19T07:07:21.854Z,101103.77
2018-09-19T07:09:51.427Z,101110.05
2018-09-19T07:12:21.022Z,101113.06
2018-09-19T07:14:50.614Z,101111.01
2018-09-19T07:17:20.182Z,101108.39
2018-09-19T07:19:49.768Z,101104.64
2018-09-19T07:22:19.338Z,101113.17
2018-09-19T07:24:48.932Z,101114.80
2018-09-19T07:27:18.546Z,101121.18
2018-09-19T07:29:48.269Z,101123.61
2018-09-19T07:32:17.874Z,101122.54
2018-09-19T07:34:54.275Z,101126.20
2018-09-19T07:37:23.844Z,101123.91
2018-09-19T07:39:53.513Z,101132.10
2018-09-19T07:42:23.169Z,101125.94
2018-09-19T07:44:52.766Z,101127.08
2018-09-19T07:47:22.379Z,101128.45
2018-09-19T07:49:51.948Z,101131.27
2018-09-19T07:52:21.528Z,101129.89
2018-09-19T07:54:51.119Z,101137.55
2018-09-19T07:57:20.731Z,101143.66
2018-09-19T07:59:50.330Z,101138.95
2018-09-19T08:02:20.241Z,101134.63
2018-09-19T08:04:50.124Z,101128.23
2018-09-19T08:07:20.392Z,101133.91
2018-09-19T08:09:50.301Z,101139.91
2018-09-19T08:12:19.899Z,101138.89
2018-09-19T08:14:49.563Z,101147.91
2018-09-19T08:17:19.380Z,101144.02
2018-09-19T08:19:49.041Z,101143.34
2018-09-19T08:22:18.667Z,101135.34
2018-09-19T08:24:48.610Z,101140.88
2018-09-19T08:27:18.267Z,101143.75
2018-09-19T08:29:47.946Z,101145.94
2018-09-19T08:32:17.725Z,101147.77
2018-09-19T08:34:47.498Z,101137.23
2018-09-19T08:37:17.356Z,101144.80
2018-09-19T08:39:47.075Z,101142.00
2018-09-19T08:42:16.780Z,101140.48
2018-09-19T08:44:46.426Z,101138.27
2018-09-19T08:47:16.051Z,101133.42
2018-09-19T08:49:45.678Z,101130.17
2018-09-19T08:52:15.519Z,101137.63
2018-09-19T08:54:45.623Z,101141.66
2018-09-19T08:57:15.531Z,101138.47
2018-09-19T08:59:45.166Z,101133.34
2018-09-19T09:02:14.835Z,101140.36
2018-09-19T09:04:44.426Z,101146.38
2018-09-19T09:07:14.094Z,101138.36
2018-09-19T09:09:43.722Z,101147.31
2018-09-19T09:12:13.353Z,101151.53
2018-09-19T09:14:42.915Z,101142.83
2018-09-19T09:17:12.477Z,101144.53
2018-09-19T09:19:42.141Z,101147.59
2018-09-19T09:22:11.688Z,101147.18
2018-09-19T09:24:41.307Z,101144.91
2018-09-19T09:27:10.995Z,101146.20
2018-09-19T09:29:40.481Z,101144.05
2018-09-19T09:32:10.066Z,101145.74
2018-09-19T09:34:39.698Z,101134.69
2018-09-19T09:37:09.289Z,101139.11
2018-09-19T09:39:38.843Z,101137.42
2018-09-19T09:42:08.523Z,101138.98
2018-09-19T09:44:38.175Z,101144.17
2018-09-19T09:47:07.789Z,101144.88
2018-09-19T09:49:37.441Z,101140.14
2018-09-19T09:52:07.254Z,101129.80
2018-09-19T09:54:37.170Z,101133.17
2018-09-19T09:57:06.780Z,101130.17
2018-09-19T09:59:36.374Z,101130.59
2018-09-19T10:02:05.958Z,101132.97
2018-09-19T10:04:35.561Z,101130.93
2018-09-19T10:07:05.334Z,101126.33
2018-09-19T10:09:34.950Z,101128.55
2018-09-19T10:12:04.628Z,101122.55
2018-09-19T10:14:34.211Z,101123.20
2018-09-19T10:17:03.810Z,101124.95
2018-09-19T10:19:33.442Z,101124.87
2018-09-19T10:22:03.049Z,101127.02
2018-09-19T10:24:32.665Z,101125.31
2018-09-19T10:27:08.769Z,101123.99
2018-09-19T10:29:38.403Z,101120.00
2018-09-19T10:32:08.074Z,101113.10
2018-09-19T10:34:37.771Z,101108.80
2018-09-19T10:37:07.688Z,101115.80
2018-09-19T10:39:37.345Z,101111.98
2018-09-19T10:42:06.939Z,101106.22
2018-09-19T10:44:36.575Z,101106.28
2018-09-19T10:47:06.210Z,101097.70
2018-09-19T10:49:35.837Z,101098.94
2018-09-19T10:52:05.528Z,101092.69
2018-09-19T10:54:35.219Z,101089.78
2018-09-19T10:57:04.825Z,101088.97
2018-09-19T10:59:34.452Z,101087.89
2018-09-19T11:02:04.126Z,101091.83
2018-09-19T11:04:34.110Z,101091.58
2018-09-19T11:07:03.825Z,101087.90
2018-09-19T11:09:33.684Z,101082.33
2018-09-19T11:12:03.358Z,101080.70
2018-09-19T11:14:33.032Z,101085.83
2018-09-19T11:17:02.888Z,101086.92
2018-09-19T11:19:32.571Z,101081.91
2018-09-19T11:22:02.179Z,101079.38
2018-09-19T11:24:31.770Z,101073.31
2018-09-19T11:27:01.397Z,101073.83
2018-09-19T11:29:30.996Z,101070.39
2018-09-19T11:32:00.590Z,101067.58
2018-09-19T11:34:31.870Z,101072.56
2018-09-19T11:37:01.526Z,101059.09
2018-09-19T11:39:31.062Z,101061.24
2018-09-19T11:42:00.613Z,101057.44
2018-09-19T11:44:30.181Z,101057.73
2018-09-19T11:46:59.742Z,101062.86
2018-09-19T11:49:29.373Z,101056.88
2018-09-19T11:51:58.962Z,101059.55
2018-09-19T11:54:28.690Z,101059.41
2018-09-19T11:56:58.238Z,101052.81
2018-09-19T11:59:27.857Z,101049.60
2018-09-19T12:02:04.152Z,101047.28
2018-09-19T12:04:33.743Z,101045.27
2018-09-19T12:07:03.327Z,101040.97
2018-09-19T12:09:32.910Z,101039.23
2018-09-19T12:12:02.545Z,101033.09
2018-09-19T12:14:32.075Z,101044.55
2018-09-19T12:17:01.654Z,101037.18
2018-09-19T12:19:31.297Z,101037.27
2018-09-19T12:22:00.860Z,101038.22
2018-09-19T12:24:30.451Z,101020.61
2018-09-19T12:27:00.066Z,101020.22
2018-09-19T12:29:29.806Z,101021.38
2018-09-19T12:31:59.468Z,101025.66
2018-09-19T12:34:29.035Z,101014.61
2018-09-19T12:36:58.575Z,101023.45
2018-09-19T12:39:28.210Z,101024.06
2018-09-19T12:41:57.762Z,101018.80
2018-09-19T12:44:27.316Z,101009.14
2018-09-19T12:46:56.969Z,101011.96
2018-09-19T12:49:26.617Z,101010.89
2018-09-19T12:51:56.275Z,101009.28
2018-09-19T12:54:25.828Z,101018.52
2018-09-19T12:56:55.444Z,101020.26
2018-09-19T12:59:25.101Z,101011.16
2018-09-19T13:01:54.790Z,101010.50
2018-09-19T13:04:24.405Z,101006.95
2018-09-19T13:06:53.943Z,101001.97
2018-09-19T13:09:23.526Z,101001.19
2018-09-19T13:11:53.197Z,100987.75
2018-09-19T13:14:22.775Z,100987.66
2018-09-19T13:16:52.411Z,100981.80
2018-09-19T13:19:21.985Z,100984.02
2018-09-19T13:21:51.645Z,100979.59
2018-09-19T13:24:21.222Z,100970.84
2018-09-19T13:26:50.794Z,100966.67
2018-09-19T13:29:20.399Z,100968.11
2018-09-19T13:31:50.015Z,100970.80
2018-09-19T13:34:19.600Z,100971.36
2018-09-19T13:36:49.190Z,100973.18
2018-09-19T13:39:18.749Z,100971.75
2018-09-19T13:41:48.348Z,100975.52
2018-09-19T13:44:17.902Z,100979.30
2018-09-19T13:46:47.486Z,100978.73
2018-09-19T13:49:26.675Z,100973.95
2018-09-19T13:51:57.069Z,100972.52
2018-09-19T13:54:26.719Z,100961.59
2018-09-19T13:56:56.336Z,100959.20
2018-09-19T13:59:25.897Z,100955.56
2018-09-19T14:01:55.487Z,100949.23
2018-09-19T14:04:25.092Z,100942.77
2018-09-19T14:06:54.782Z,100937.01
2018-09-19T14:09:24.394Z,100950.93
2018-09-19T14:11:54.030Z,100945.08
2018-09-19T14:14:23.698Z,100938.27
2018-09-19T14:16:53.393Z,100941.16
2018-09-19T14:19:22.961Z,100938.86
2018-09-19T14:21:52.797Z,100931.09
2018-09-19T14:24:22.382Z,100932.44
2018-09-19T14:26:51.974Z,100929.36
2018-09-19T14:29:21.838Z,100930.23
2018-09-19T14:31:51.435Z,100924.47
2018-09-19T14:34:21.058Z,100935.31
2018-09-19T14:36:50.692Z,100942.98
2018-09-19T14:39:20.301Z,100934.92
2018-09-19T14:41:49.883Z,100938.09
2018-09-19T14:44:19.518Z,100936.83
2018-09-19T14:46:49.097Z,100932.89
2018-09-19T14:49:18.722Z,100930.67
2018-09-19T14:51:48.441Z,100925.39
2018-09-19T14:54:18.218Z,100929.55
2018-09-19T14:56:47.822Z,100918.87
2018-09-19T14:59:17.499Z,100926.95
2018-09-19T15:01:47.107Z,100920.70
2018-09-19T15:04:16.735Z,100923.88
2018-09-19T15:06:46.346Z,100923.96
2018-09-19T15:09:15.953Z,100925.88
2018-09-19T15:11:45.641Z,100925.57
2018-09-19T15:14:15.372Z,100923.06
2018-09-19T15:16:44.945Z,100909.23
2018-09-19T15:19:14.548Z,100909.41
2018-09-19T15:21:44.231Z,100897.19
2018-09-19T15:24:14.007Z,100897.45
2018-09-19T15:26:43.649Z,100889.70
2018-09-19T15:29:13.486Z,100892.64
2018-09-19T15:31:43.201Z,100887.53
2018-09-19T15:34:12.989Z,100889.66
2018-09-19T15:36:42.730Z,100889.73
2018-09-19T15:39:12.358Z,100881.94
2018-09-19T15:41:42.054Z,100890.73
2018-09-19T15:44:11.733Z,100888.61
2018-09-19T15:46:41.345Z,100887.56
2018-09-19T15:49:11.011Z,100885.44
2018-09-19T15:51:40.910Z,100882.53
2018-09-19T15:54:10.475Z,100874.27
2018-09-19T15:56:40.206Z,100869.16
2018-09-19T15:59:10.034Z,100870.75
2018-09-19T16:01:39.626Z,100877.33
2018-09-19T16:04:09.457Z,100867.74
2018-09-19T16:06:39.110Z,100871.16
2018-09-19T16:09:10.827Z,100867.77
2018-09-19T16:11:40.939Z,100872.56
2018-09-19T16:14:10.879Z,100869.26
2018-09-19T16:16:40.542Z,100869.04
2018-09-19T16:19:10.242Z,100870.66
2018-09-19T16:21:39.874Z,100865.16
2018-09-19T16:24:09.487Z,100867.69
2018-09-19T16:26:39.102Z,100869.39
2018-09-19T16:29:08.750Z,100872.45
2018-09-19T16:31:38.413Z,100872.02
2018-09-19T16:34:08.543Z,100875.42
2018-09-19T16:36:38.189Z,100874.59
2018-09-19T16:39:11.209Z,100879.48
2018-09-19T16:41:40.890Z,100872.27
2018-09-19T16:44:10.598Z,100874.95
2018-09-19T16:46:40.266Z,100877.66
2018-09-19T16:49:10.285Z,100875.25
2018-09-19T16:51:39.933Z,100870.46
2018-09-19T16:54:09.606Z,100870.41
2018-09-19T16:56:39.294Z,100874.33
2018-09-19T16:59:08.972Z,100873.08
2018-09-19T17:01:38.758Z,100877.00
2018-09-19T17:04:08.370Z,100873.39
2018-09-19T17:06:38.066Z,100876.84
2018-09-19T17:09:09.005Z,100875.39
2018-09-19T17:11:38.629Z,100882.84
2018-09-19T17:14:08.271Z,100877.96
2018-09-19T17:16:37.868Z,100881.00
2018-09-19T17:19:07.525Z,100880.52
2018-09-19T17:21:37.184Z,100886.16
2018-09-19T17:24:07.385Z,100883.86
2018-09-19T17:26:36.992Z,100878.86
2018-09-19T17:29:07.105Z,100879.24
2018-09-19T17:31:36.751Z,100875.47
2018-09-19T17:34:06.382Z,100878.42
2018-09-19T17:36:36.082Z,100879.66
2018-09-19T17:39:10.441Z,100881.67
2018-09-19T17:41:40.066Z,100885.98
2018-09-19T17:44:09.688Z,100885.78
2018-09-19T17:46:39.679Z,100882.05
2018-09-19T17:49:09.406Z,100885.81
2018-09-19T17:51:39.110Z,100881.14
2018-09-19T17:54:08.706Z,100884.17
2018-09-19T17:56:38.378Z,100887.50
2018-09-19T17:59:08.169Z,100887.36
2018-09-19T18:01:37.808Z,100891.96
2018-09-19T18:04:07.624Z,100893.48
2018-09-19T18:06:37.251Z,100895.02
2018-09-19T18:09:08.366Z,100893.97
2018-09-19T18:11:38.174Z,100893.69
2018-09-19T18:14:07.805Z,100901.82
2018-09-19T18:16:37.576Z,100900.30
2018-09-19T18:19:07.317Z,100898.75
2018-09-19T18:21:36.950Z,100901.14
2018-09-19T18:24:06.746Z,100898.69
2018-09-19T18:26:36.445Z,100904.62
2018-09-19T18:29:06.149Z,100903.80
2018-09-19T18:31:35.712Z,100910.02
2018-09-19T18:34:05.290Z,100901.66
2018-09-19T18:36:34.877Z,100903.05
2018-09-19T18:39:05.764Z,100902.72
2018-09-19T18:41:35.892Z,100905.84
2018-09-19T18:44:05.495Z,100905.91
2018-09-19T18:46:35.238Z,100906.88
2018-09-19T18:49:04.912Z,100911.45
2018-09-19T18:51:34.537Z,100904.97
2018-09-19T18:54:04.187Z,100911.78
2018-09-19T18:56:33.743Z,100909.44
2018-09-19T18:59:03.354Z,100913.67
2018-09-19T19:01:32.954Z,100917.07
2018-09-19T19:04:02.505Z,100910.17
2018-09-19T19:06:32.086Z,100916.14
2018-09-19T19:09:01.754Z,100911.18
2018-09-19T19:11:31.330Z,100917.61
2018-09-19T19:14:00.924Z,100915.09
2018-09-19T19:16:30.574Z,100916.99
2018-09-19T19:19:00.526Z,100919.31
2018-09-19T19:21:30.403Z,100919.47
2018-09-19T19:24:00.274Z,100920.48
2018-09-19T19:26:29.861Z,100922.75
2018-09-19T19:28:59.453Z,100923.78
2018-09-19T19:31:29.102Z,100923.84
2018-09-19T19:33:58.658Z,100924.78
2018-09-19T19:36:28.254Z,100926.27
2018-09-19T19:38:58.209Z,100923.28
2018-09-19T19:41:27.778Z,100925.95
2018-09-19T19:43:57.349Z,100930.73
2018-09-19T19:46:27.007Z,100929.03
2018-09-19T19:48:56.567Z,100929.13
2018-09-19T19:51:26.393Z,100929.65
2018-09-19T19:53:55.986Z,100928.83
2018-09-19T19:56:25.593Z,100928.99
2018-09-19T19:58:55.206Z,100923.85
2018-09-19T20:01:24.990Z,100924.47
2018-09-19T20:03:54.547Z,100923.30
2018-09-19T20:06:24.144Z,100925.69
2018-09-19T20:08:53.752Z,100925.84
2018-09-19T20:11:23.363Z,100930.86
2018-09-19T20:13:52.946Z,100932.89
2018-09-19T20:16:22.633Z,100934.53
2018-09-19T20:18:52.171Z,100937.94
2018-09-19T20:21:21.781Z,100935.94
2018-09-19T20:23:51.357Z,100947.33
2018-09-19T20:26:20.902Z,100946.59
2018-09-19T20:28:50.505Z,100945.08
2018-09-19T20:31:20.058Z,100952.38
2018-09-19T20:33:49.621Z,100948.66
2018-09-19T20:36:19.336Z,100954.16
2018-09-19T20:38:48.937Z,100951.69
2018-09-19T20:41:18.559Z,100951.39
2018-09-19T20:43:48.222Z,100954.23
2018-09-19T20:46:17.829Z,100948.26
2018-09-19T20:48:47.410Z,100945.82
2018-09-19T20:51:17.006Z,100950.82
2018-09-19T20:53:46.878Z,100953.19
2018-09-19T20:56:16.471Z,100950.66
2018-09-19T20:58:46.055Z,100956.10
2018-09-19T21:01:15.648Z,100948.75
2018-09-19T21:03:45.256Z,100951.53
2018-09-19T21:06:14.833Z,100956.06
2018-09-19T21:08:44.426Z,100952.73
2018-09-19T21:11:14.022Z,100951.48
2018-09-19T21:13:43.606Z,100960.00
2018-09-19T21:16:13.213Z,100957.00
2018-09-19T21:18:42.860Z,100959.77
2018-09-19T21:21:12.421Z,100957.66
2018-09-19T21:23:41.986Z,100953.30
2018-09-19T21:26:11.533Z,100958.23
2018-09-19T21:28:41.135Z,100956.08
2018-09-19T21:31:10.888Z,100958.31
2018-09-19T21:33:40.446Z,100956.69
2018-09-19T21:36:10.054Z,100958.50
2018-09-19T21:38:39.688Z,100956.84
2018-09-19T21:41:09.270Z,100954.72
2018-09-19T21:43:38.875Z,100955.63
2018-09-19T21:46:08.528Z,100959.27
2018-09-19T21:48:38.181Z,100955.32
2018-09-19T21:51:07.823Z,100961.96
2018-09-19T21:53:37.529Z,100957.11
2018-09-19T21:56:07.129Z,100959.31
2018-09-19T21:58:36.809Z,100960.26
2018-09-19T22:01:08.333Z,100959.47
2018-09-19T22:03:39.254Z,100960.45
2018-09-19T22:06:09.103Z,100952.09
2018-09-19T22:08:39.035Z,100952.59
2018-09-19T22:11:08.661Z,100953.09
2018-09-19T22:13:38.415Z,100947.85
2018-09-19T22:16:08.047Z,100950.13
2018-09-19T22:18:37.670Z,100951.03
2018-09-19T22:21:07.402Z,100950.20
2018-09-19T22:23:36.969Z,100951.56
2018-09-19T22:26:06.615Z,100945.03
2018-09-19T22:28:36.231Z,100953.91
2018-09-19T22:31:06.181Z,100955.23
2018-09-19T22:33:35.830Z,100953.48
2018-09-19T22:36:05.678Z,100945.15
2018-09-19T22:38:35.285Z,100946.97
2018-09-19T22:41:04.881Z,100947.49
2018-09-19T22:43:34.539Z,100946.77
2018-09-19T22:46:04.306Z,100952.59
2018-09-19T22:48:33.958Z,100948.27
2018-09-19T22:51:03.705Z,100941.28
2018-09-19T22:53:33.385Z,100941.39
2018-09-19T22:56:03.014Z,100946.34
2018-09-19T22:58:32.777Z,100935.84
2018-09-19T23:01:02.482Z,100938.56
2018-09-19T23:03:32.114Z,100932.03
2018-09-19T23:06:01.761Z,100932.94
2018-09-19T23:08:31.362Z,100940.02
2018-09-19T23:11:00.993Z,100935.70
2018-09-19T23:13:30.940Z,100940.16
2018-09-19T23:16:00.576Z,100938.52
2018-09-19T23:18:30.288Z,100935.51
2018-09-19T23:20:59.968Z,100932.05
2018-09-19T23:23:29.571Z,100936.06
2018-09-19T23:25:59.222Z,100935.19
2018-09-19T23:28:28.857Z,100930.38
2018-09-19T23:30:58.477Z,100922.52
2018-09-19T23:33:28.141Z,100930.92
2018-09-19T23:35:58.010Z,100930.95
2018-09-19T23:38:30.811Z,100935.36
2018-09-19T23:41:00.457Z,100934.03
2018-09-19T23:43:30.074Z,100941.44
2018-09-19T23:45:59.670Z,100938.81
2018-09-19T23:48:29.240Z,100944.60
2018-09-19T23:50:58.799Z,100946.77
2018-09-19T23:53:28.370Z,100945.92
2018-09-19T23:55:58.174Z,100942.79
2018-09-19T23:58:27.737Z,100945.05
